Overview Statistics Trail Chart Weather Telemetry Raw packets
 

This is the latest recevied weather packets stored in our database for station/object N3OZD-10. If no packets are shown the sender has not sent any weather packets the latest 10 day(s).

<< 114 115 116 117 118 119 120 >>
Time Temp. Humidity Pressure Rain* Wind** Luminosity Snow
1787787741 24.44° C 65% 1015.9 hPa 0 mm - - -
1787787440 24.44° C 64% 1015.9 hPa 0 mm - - -
1787787139 25° C 63% 1015.9 hPa 0 mm - - -
1787786540 24.44° C 63% 1016 hPa 0 mm - - -
1787786241 25° C 62% 1016 hPa 0 mm - - -
1787785941 25° C 62% 1016.1 hPa 0 mm - - -
1787785639 25° C 61% 1016.1 hPa 0 mm - - -
1787785339 25° C 62% 1016.2 hPa 0 mm - - -
1787785048 25° C 61% 1016.3 hPa 0 mm - - -
1787784741 25.56° C 59% 1016.3 hPa 0 mm - - -
1787784440 25.56° C 59% 1016.4 hPa 0 mm - - -
1787784139 25° C 60% 1016.4 hPa 0 mm - - -
1787783839 25.56° C 60% 1016.5 hPa 0 mm - - -
1787783542 25.56° C 58% 1016.5 hPa 0 mm - - -
1787782939 25.56° C 57% 1016.5 hPa 0 mm - - -
1787782639 26.11° C 57% 1016.6 hPa 0 mm - - -
1787782340 26.11° C 56% 1016.6 hPa 0 mm - - -
1787781740 26.11° C 55% 1016.6 hPa 0 mm - - -
1787781441 26.11° C 57% 1016.6 hPa 0 mm - - -
1787781139 26.11° C 57% 1016.6 hPa 0 mm - - -
1787780839 26.67° C 55% 1016.6 hPa 0 mm - - -
1787780541 26.67° C 54% 1016.6 hPa 0 mm - - -
1787780240 26.11° C 58% 1016.7 hPa 0 mm - - -
1787779939 26.11° C 58% 1016.7 hPa 0 mm - - -
1787779775 26.67° C 57% 1016.7 hPa 0 mm - - -

* Rain latest hour (hover to see other rain measurements)
** Current wind speed in m/s (hover to see current wind gust speed)